sensor_id;sensor_type;location;lat;lon;timestamp;P1;durP1;ratioP1;P2;durP2;ratioP2
56752;SDS011;42627;42.646;23.642;2022-08-19T06:31:42;6.20;;;3.90;;
56752;SDS011;42627;42.646;23.642;2022-08-19T06:37:07;4.90;;;2.80;;
56752;SDS011;42627;42.646;23.642;2022-08-19T06:39:26;5.03;;;3.17;;
56752;SDS011;42627;42.646;23.642;2022-08-19T06:44:30;5.10;;;3.08;;
56752;SDS011;42627;42.646;23.642;2022-08-19T06:46:57;4.90;;;3.10;;
56752;SDS011;42627;42.646;23.642;2022-08-19T06:49:03;4.13;;;2.70;;
56752;SDS011;42627;42.646;23.642;2022-08-19T06:51:07;6.47;;;3.22;;
56752;SDS011;42627;42.646;23.642;2022-08-19T06:53:18;12.32;;;4.63;;
56752;SDS011;42627;42.646;23.642;2022-08-19T06:55:22;10.57;;;3.42;;
56752;SDS011;42627;42.646;23.642;2022-08-19T06:57:23;5.60;;;3.42;;
56752;SDS011;42627;42.646;23.642;2022-08-19T06:59:25;5.38;;;3.45;;
56752;SDS011;42627;42.646;23.642;2022-08-19T07:01:28;6.22;;;3.17;;
56752;SDS011;42627;42.646;23.642;2022-08-19T07:03:30;4.20;;;2.55;;
56752;SDS011;42627;42.646;23.642;2022-08-19T07:05:32;6.20;;;3.10;;
56752;SDS011;42627;42.646;23.642;2022-08-19T07:07:32;5.90;;;2.65;;
56752;SDS011;42627;42.646;23.642;2022-08-19T07:09:35;4.82;;;3.08;;
56752;SDS011;42627;42.646;23.642;2022-08-19T07:11:38;8.90;;;3.45;;
56752;SDS011;42627;42.646;23.642;2022-08-19T07:13:39;11.57;;;4.90;;
56752;SDS011;42627;42.646;23.642;2022-08-19T07:15:43;4.63;;;2.90;;
56752;SDS011;42627;42.646;23.642;2022-08-19T07:17:46;7.20;;;3.03;;
56752;SDS011;42627;42.646;23.642;2022-08-19T07:19:47;4.95;;;3.20;;
56752;SDS011;42627;42.646;23.642;2022-08-19T07:21:48;5.75;;;2.72;;
56752;SDS011;42627;42.646;23.642;2022-08-19T07:23:53;5.25;;;2.92;;
56752;SDS011;42627;42.646;23.642;2022-08-19T07:25:55;5.13;;;2.65;;
56752;SDS011;42627;42.646;23.642;2022-08-19T07:27:57;8.15;;;3.17;;
56752;SDS011;42627;42.646;23.642;2022-08-19T07:29:57;5.93;;;2.92;;
56752;SDS011;42627;42.646;23.642;2022-08-19T07:31:59;5.63;;;2.70;;
56752;SDS011;42627;42.646;23.642;2022-08-19T07:34:02;6.22;;;3.10;;
56752;SDS011;42627;42.646;23.642;2022-08-19T07:36:10;4.15;;;2.63;;
56752;SDS011;42627;42.646;23.642;2022-08-19T07:38:12;5.05;;;2.85;;
56752;SDS011;42627;42.646;23.642;2022-08-19T07:40:16;7.28;;;3.75;;
56752;SDS011;42627;42.646;23.642;2022-08-19T07:42:17;4.68;;;2.90;;
56752;SDS011;42627;42.646;23.642;2022-08-19T07:44:27;6.68;;;3.10;;
56752;SDS011;42627;42.646;23.642;2022-08-19T07:49:46;5.13;;;2.50;;
56752;SDS011;42627;42.646;23.642;2022-08-19T07:52:10;4.65;;;2.78;;
56752;SDS011;42627;42.646;23.642;2022-08-19T07:57:10;4.35;;;2.50;;
56752;SDS011;42627;42.646;23.642;2022-08-19T07:59:34;3.67;;;2.42;;
56752;SDS011;42627;42.646;23.642;2022-08-19T08:01:39;5.65;;;3.00;;
56752;SDS011;42627;42.646;23.642;2022-08-19T08:03:56;4.20;;;2.50;;
56752;SDS011;42627;42.646;23.642;2022-08-19T08:06:38;5.13;;;2.90;;
56752;SDS011;42627;42.646;23.642;2022-08-19T08:09:01;4.95;;;2.75;;
56752;SDS011;42627;42.646;23.642;2022-08-19T08:11:49;4.28;;;2.58;;
56752;SDS011;42627;42.646;23.642;2022-08-19T08:14:03;5.32;;;3.13;;
56752;SDS011;42627;42.646;23.642;2022-08-19T08:16:15;3.88;;;2.30;;
56752;SDS011;42627;42.646;23.642;2022-08-19T08:23:51;4.40;;;2.67;;
56752;SDS011;42627;42.646;23.642;2022-08-19T08:25:56;3.97;;;2.45;;
56752;SDS011;42627;42.646;23.642;2022-08-19T08:27:57;4.40;;;2.40;;
56752;SDS011;42627;42.646;23.642;2022-08-19T08:30:00;5.45;;;3.00;;
56752;SDS011;42627;42.646;23.642;2022-08-19T08:32:01;6.38;;;2.72;;
56752;SDS011;42627;42.646;23.642;2022-08-19T08:34:03;6.55;;;3.20;;
56752;SDS011;42627;42.646;23.642;2022-08-19T08:36:04;5.10;;;2.85;;
56752;SDS011;42627;42.646;23.642;2022-08-19T08:38:05;4.78;;;2.38;;
56752;SDS011;42627;42.646;23.642;2022-08-19T08:40:09;4.07;;;2.80;;
56752;SDS011;42627;42.646;23.642;2022-08-19T08:42:22;3.80;;;2.17;;
56752;SDS011;42627;42.646;23.642;2022-08-19T08:44:38;4.40;;;2.40;;
56752;SDS011;42627;42.646;23.642;2022-08-19T08:46:42;4.03;;;2.45;;
56752;SDS011;42627;42.646;23.642;2022-08-19T08:49:00;4.22;;;2.45;;
56752;SDS011;42627;42.646;23.642;2022-08-19T08:51:05;5.28;;;2.42;;
56752;SDS011;42627;42.646;23.642;2022-08-19T08:53:08;4.22;;;2.22;;
56752;SDS011;42627;42.646;23.642;2022-08-19T08:55:11;3.80;;;2.45;;
56752;SDS011;42627;42.646;23.642;2022-08-19T08:57:14;3.78;;;2.55;;
56752;SDS011;42627;42.646;23.642;2022-08-19T08:59:18;4.25;;;2.22;;
56752;SDS011;42627;42.646;23.642;2022-08-19T09:01:20;4.53;;;2.42;;
56752;SDS011;42627;42.646;23.642;2022-08-19T09:03:23;4.75;;;2.47;;
56752;SDS011;42627;42.646;23.642;2022-08-19T09:05:25;5.22;;;2.55;;
56752;SDS011;42627;42.646;23.642;2022-08-19T09:12:12;6.85;;;2.45;;
56752;SDS011;42627;42.646;23.642;2022-08-19T09:16:47;3.33;;;1.98;;
56752;SDS011;42627;42.646;23.642;2022-08-19T09:18:52;4.38;;;2.15;;
56752;SDS011;42627;42.646;23.642;2022-08-19T09:20:57;3.92;;;2.40;;
56752;SDS011;42627;42.646;23.642;2022-08-19T09:23:11;4.78;;;2.53;;
56752;SDS011;42627;42.646;23.642;2022-08-19T09:25:21;3.28;;;2.30;;
56752;SDS011;42627;42.646;23.642;2022-08-19T09:27:31;4.35;;;2.58;;
56752;SDS011;42627;42.646;23.642;2022-08-19T09:29:54;3.22;;;1.80;;
56752;SDS011;42627;42.646;23.642;2022-08-19T09:32:01;5.22;;;2.40;;
56752;SDS011;42627;42.646;23.642;2022-08-19T09:34:02;2.97;;;1.55;;
56752;SDS011;42627;42.646;23.642;2022-08-19T09:36:06;2.55;;;1.77;;
56752;SDS011;42627;42.646;23.642;2022-08-19T09:38:07;5.55;;;1.98;;
56752;SDS011;42627;42.646;23.642;2022-08-19T09:40:08;3.13;;;1.83;;
56752;SDS011;42627;42.646;23.642;2022-08-19T09:42:10;2.83;;;1.98;;
56752;SDS011;42627;42.646;23.642;2022-08-19T09:44:13;3.78;;;2.25;;
56752;SDS011;42627;42.646;23.642;2022-08-19T09:46:14;3.03;;;1.70;;
56752;SDS011;42627;42.646;23.642;2022-08-19T09:48:19;4.07;;;1.90;;
56752;SDS011;42627;42.646;23.642;2022-08-19T09:50:22;5.03;;;2.50;;
56752;SDS011;42627;42.646;23.642;2022-08-19T09:52:23;4.70;;;2.17;;
56752;SDS011;42627;42.646;23.642;2022-08-19T09:54:24;4.68;;;2.20;;
56752;SDS011;42627;42.646;23.642;2022-08-19T09:56:25;3.97;;;1.92;;
56752;SDS011;42627;42.646;23.642;2022-08-19T09:58:27;4.15;;;2.10;;
56752;SDS011;42627;42.646;23.642;2022-08-19T10:00:29;3.75;;;2.20;;
56752;SDS011;42627;42.646;23.642;2022-08-19T10:02:31;3.92;;;2.22;;
56752;SDS011;42627;42.646;23.642;2022-08-19T10:04:32;4.93;;;2.20;;
56752;SDS011;42627;42.646;23.642;2022-08-19T10:06:55;5.75;;;1.98;;
56752;SDS011;42627;42.646;23.642;2022-08-19T10:08:56;3.47;;;1.80;;
56752;SDS011;42627;42.646;23.642;2022-08-19T10:10:57;3.80;;;2.05;;
56752;SDS011;42627;42.646;23.642;2022-08-19T10:12:58;3.50;;;1.88;;
56752;SDS011;42627;42.646;23.642;2022-08-19T10:14:59;4.03;;;2.38;;
56752;SDS011;42627;42.646;23.642;2022-08-19T10:17:01;2.95;;;1.77;;
56752;SDS011;42627;42.646;23.642;2022-08-19T10:19:02;4.15;;;2.30;;
56752;SDS011;42627;42.646;23.642;2022-08-19T10:23:08;3.45;;;1.77;;
56752;SDS011;42627;42.646;23.642;2022-08-19T10:25:21;3.95;;;2.30;;
56752;SDS011;42627;42.646;23.642;2022-08-19T10:27:37;3.10;;;1.80;;
56752;SDS011;42627;42.646;23.642;2022-08-19T10:29:51;3.80;;;2.13;;
56752;SDS011;42627;42.646;23.642;2022-08-19T10:39:54;3.20;;;1.67;;
56752;SDS011;42627;42.646;23.642;2022-08-19T10:42:21;3.17;;;1.90;;
56752;SDS011;42627;42.646;23.642;2022-08-19T10:44:40;4.93;;;2.13;;
56752;SDS011;42627;42.646;23.642;2022-08-19T10:46:51;5.32;;;1.90;;
56752;SDS011;42627;42.646;23.642;2022-08-19T10:49:15;4.40;;;2.10;;
56752;SDS011;42627;42.646;23.642;2022-08-19T10:51:26;7.50;;;3.22;;
56752;SDS011;42627;42.646;23.642;2022-08-19T10:53:53;4.38;;;2.10;;
56752;SDS011;42627;42.646;23.642;2022-08-19T10:56:05;6.28;;;2.25;;
56752;SDS011;42627;42.646;23.642;2022-08-19T10:58:27;7.18;;;2.58;;
56752;SDS011;42627;42.646;23.642;2022-08-19T11:00:38;3.65;;;1.90;;
56752;SDS011;42627;42.646;23.642;2022-08-19T11:02:42;6.85;;;2.53;;
56752;SDS011;42627;42.646;23.642;2022-08-19T11:04:51;4.15;;;2.05;;
56752;SDS011;42627;42.646;23.642;2022-08-19T11:07:06;4.97;;;3.03;;
56752;SDS011;42627;42.646;23.642;2022-08-19T11:09:36;3.28;;;1.98;;
56752;SDS011;42627;42.646;23.642;2022-08-19T11:11:46;5.80;;;3.65;;
56752;SDS011;42627;42.646;23.642;2022-08-19T11:13:48;3.50;;;2.13;;
56752;SDS011;42627;42.646;23.642;2022-08-19T11:16:23;4.63;;;2.65;;
56752;SDS011;42627;42.646;23.642;2022-08-19T11:18:17;5.57;;;3.70;;
56752;SDS011;42627;42.646;23.642;2022-08-19T11:20:18;6.63;;;3.25;;
56752;SDS011;42627;42.646;23.642;2022-08-19T11:22:19;4.90;;;2.75;;
56752;SDS011;42627;42.646;23.642;2022-08-19T11:24:21;3.75;;;2.17;;
56752;SDS011;42627;42.646;23.642;2022-08-19T11:26:23;3.80;;;2.33;;
56752;SDS011;42627;42.646;23.642;2022-08-19T11:28:24;3.28;;;2.22;;
56752;SDS011;42627;42.646;23.642;2022-08-19T11:30:25;5.50;;;2.60;;
56752;SDS011;42627;42.646;23.642;2022-08-19T11:32:27;3.60;;;2.25;;
56752;SDS011;42627;42.646;23.642;2022-08-19T11:34:29;7.07;;;2.83;;
56752;SDS011;42627;42.646;23.642;2022-08-19T11:36:31;13.93;;;3.42;;
56752;SDS011;42627;42.646;23.642;2022-08-19T11:38:32;4.63;;;2.55;;
56752;SDS011;42627;42.646;23.642;2022-08-19T11:40:35;3.00;;;1.85;;
56752;SDS011;42627;42.646;23.642;2022-08-19T11:42:36;3.70;;;2.20;;
56752;SDS011;42627;42.646;23.642;2022-08-19T11:44:56;4.13;;;2.30;;
56752;SDS011;42627;42.646;23.642;2022-08-19T11:46:57;3.83;;;2.47;;
56752;SDS011;42627;42.646;23.642;2022-08-19T11:49:00;3.38;;;2.28;;
56752;SDS011;42627;42.646;23.642;2022-08-19T11:51:04;3.90;;;2.33;;
56752;SDS011;42627;42.646;23.642;2022-08-19T11:53:09;3.55;;;2.17;;
56752;SDS011;42627;42.646;23.642;2022-08-19T11:55:10;3.75;;;1.83;;
56752;SDS011;42627;42.646;23.642;2022-08-19T11:57:11;3.72;;;2.38;;
56752;SDS011;42627;42.646;23.642;2022-08-19T11:59:14;3.50;;;2.10;;
56752;SDS011;42627;42.646;23.642;2022-08-19T12:01:17;3.63;;;2.35;;
56752;SDS011;42627;42.646;23.642;2022-08-19T12:03:18;3.95;;;2.10;;
56752;SDS011;42627;42.646;23.642;2022-08-19T12:05:19;4.03;;;2.38;;
56752;SDS011;42627;42.646;23.642;2022-08-19T12:07:21;5.20;;;2.60;;
56752;SDS011;42627;42.646;23.642;2022-08-19T12:09:22;3.95;;;2.00;;
56752;SDS011;42627;42.646;23.642;2022-08-19T12:11:23;3.90;;;1.85;;
56752;SDS011;42627;42.646;23.642;2022-08-19T12:13:24;3.42;;;2.30;;
56752;SDS011;42627;42.646;23.642;2022-08-19T12:15:26;3.83;;;2.20;;
56752;SDS011;42627;42.646;23.642;2022-08-19T12:17:28;4.03;;;2.47;;
56752;SDS011;42627;42.646;23.642;2022-08-19T12:19:30;3.53;;;2.40;;
56752;SDS011;42627;42.646;23.642;2022-08-19T12:21:32;4.05;;;2.72;;
56752;SDS011;42627;42.646;23.642;2022-08-19T12:23:33;3.72;;;2.30;;
56752;SDS011;42627;42.646;23.642;2022-08-19T12:25:37;4.05;;;2.38;;
56752;SDS011;42627;42.646;23.642;2022-08-19T12:27:48;4.97;;;2.70;;
56752;SDS011;42627;42.646;23.642;2022-08-19T12:29:49;3.05;;;2.08;;
56752;SDS011;42627;42.646;23.642;2022-08-19T12:31:51;4.45;;;2.33;;
56752;SDS011;42627;42.646;23.642;2022-08-19T12:33:52;3.72;;;2.28;;
56752;SDS011;42627;42.646;23.642;2022-08-19T12:35:53;3.13;;;2.00;;
56752;SDS011;42627;42.646;23.642;2022-08-19T12:37:54;4.30;;;2.30;;
56752;SDS011;42627;42.646;23.642;2022-08-19T12:39:55;3.50;;;2.33;;
56752;SDS011;42627;42.646;23.642;2022-08-19T12:41:56;4.60;;;2.45;;
56752;SDS011;42627;42.646;23.642;2022-08-19T12:43:57;3.17;;;2.17;;
56752;SDS011;42627;42.646;23.642;2022-08-19T12:46:05;4.38;;;2.42;;
56752;SDS011;42627;42.646;23.642;2022-08-19T12:48:06;3.67;;;2.30;;
56752;SDS011;42627;42.646;23.642;2022-08-19T12:50:08;4.50;;;2.13;;
56752;SDS011;42627;42.646;23.642;2022-08-19T12:52:09;3.47;;;2.17;;
56752;SDS011;42627;42.646;23.642;2022-08-19T12:54:10;3.80;;;2.40;;
56752;SDS011;42627;42.646;23.642;2022-08-19T12:56:12;5.43;;;3.55;;
56752;SDS011;42627;42.646;23.642;2022-08-19T12:58:14;3.55;;;1.92;;
56752;SDS011;42627;42.646;23.642;2022-08-19T13:02:52;4.55;;;2.40;;
56752;SDS011;42627;42.646;23.642;2022-08-19T13:04:58;3.30;;;2.28;;
56752;SDS011;42627;42.646;23.642;2022-08-19T13:06:59;5.47;;;2.70;;
56752;SDS011;42627;42.646;23.642;2022-08-19T13:09:00;3.95;;;2.28;;
56752;SDS011;42627;42.646;23.642;2022-08-19T13:11:12;4.13;;;2.30;;
56752;SDS011;42627;42.646;23.642;2022-08-19T13:13:13;4.40;;;2.42;;
56752;SDS011;42627;42.646;23.642;2022-08-19T13:15:21;7.68;;;2.45;;
56752;SDS011;42627;42.646;23.642;2022-08-19T13:17:29;4.65;;;2.20;;
56752;SDS011;42627;42.646;23.642;2022-08-19T13:19:30;5.53;;;3.33;;
56752;SDS011;42627;42.646;23.642;2022-08-19T13:21:31;3.60;;;2.40;;
56752;SDS011;42627;42.646;23.642;2022-08-19T13:23:33;3.53;;;2.33;;
56752;SDS011;42627;42.646;23.642;2022-08-19T13:25:35;4.03;;;2.10;;
56752;SDS011;42627;42.646;23.642;2022-08-19T13:27:37;4.15;;;2.00;;
56752;SDS011;42627;42.646;23.642;2022-08-19T13:29:39;4.93;;;2.85;;
56752;SDS011;42627;42.646;23.642;2022-08-19T13:31:58;4.00;;;2.25;;
56752;SDS011;42627;42.646;23.642;2022-08-19T13:34:19;3.58;;;2.20;;
56752;SDS011;42627;42.646;23.642;2022-08-19T13:36:20;3.65;;;2.25;;
56752;SDS011;42627;42.646;23.642;2022-08-19T13:38:22;3.80;;;2.00;;
56752;SDS011;42627;42.646;23.642;2022-08-19T13:40:24;4.47;;;2.45;;
56752;SDS011;42627;42.646;23.642;2022-08-19T13:42:26;3.25;;;2.13;;
56752;SDS011;42627;42.646;23.642;2022-08-19T15:11:26;3.60;;;2.13;;
56752;SDS011;42627;42.646;23.642;2022-08-19T15:13:28;3.95;;;2.50;;
56752;SDS011;42627;42.646;23.642;2022-08-19T15:15:34;4.45;;;2.35;;
56752;SDS011;42627;42.646;23.642;2022-08-19T15:17:35;4.30;;;2.05;;
56752;SDS011;42627;42.646;23.642;2022-08-19T15:19:37;5.15;;;2.60;;
56752;SDS011;42627;42.646;23.642;2022-08-19T15:21:38;4.03;;;2.22;;
56752;SDS011;42627;42.646;23.642;2022-08-19T15:23:39;6.80;;;2.30;;
56752;SDS011;42627;42.646;23.642;2022-08-19T15:25:59;13.90;;;2.60;;
56752;SDS011;42627;42.646;23.642;2022-08-19T15:30:30;4.15;;;2.10;;
56752;SDS011;42627;42.646;23.642;2022-08-19T15:32:33;3.80;;;2.13;;
56752;SDS011;42627;42.646;23.642;2022-08-19T15:34:34;4.32;;;2.13;;
56752;SDS011;42627;42.646;23.642;2022-08-19T15:36:36;3.33;;;2.13;;
56752;SDS011;42627;42.646;23.642;2022-08-19T15:38:37;5.38;;;2.33;;
56752;SDS011;42627;42.646;23.642;2022-08-19T15:40:39;3.05;;;2.13;;
56752;SDS011;42627;42.646;23.642;2022-08-19T15:42:40;3.65;;;2.03;;
56752;SDS011;42627;42.646;23.642;2022-08-19T15:44:42;2.97;;;1.95;;
56752;SDS011;42627;42.646;23.642;2022-08-19T15:46:44;4.18;;;2.10;;
56752;SDS011;42627;42.646;23.642;2022-08-19T15:48:49;3.92;;;2.20;;
56752;SDS011;42627;42.646;23.642;2022-08-19T15:50:50;3.75;;;2.25;;
56752;SDS011;42627;42.646;23.642;2022-08-19T15:52:52;3.65;;;2.03;;
56752;SDS011;42627;42.646;23.642;2022-08-19T15:54:53;3.90;;;2.20;;
56752;SDS011;42627;42.646;23.642;2022-08-19T15:56:54;3.63;;;2.10;;
56752;SDS011;42627;42.646;23.642;2022-08-19T15:59:14;3.78;;;2.33;;
56752;SDS011;42627;42.646;23.642;2022-08-19T16:01:33;4.57;;;2.30;;
56752;SDS011;42627;42.646;23.642;2022-08-19T16:03:53;4.15;;;2.15;;
56752;SDS011;42627;42.646;23.642;2022-08-19T16:06:13;3.35;;;2.05;;
56752;SDS011;42627;42.646;23.642;2022-08-19T16:08:27;3.63;;;1.90;;
56752;SDS011;42627;42.646;23.642;2022-08-19T16:10:28;4.82;;;2.67;;
56752;SDS011;42627;42.646;23.642;2022-08-19T16:12:29;4.47;;;2.38;;
56752;SDS011;42627;42.646;23.642;2022-08-19T16:14:31;4.55;;;2.10;;
56752;SDS011;42627;42.646;23.642;2022-08-19T16:16:32;3.22;;;1.95;;
56752;SDS011;42627;42.646;23.642;2022-08-19T16:18:33;3.55;;;2.20;;
56752;SDS011;42627;42.646;23.642;2022-08-19T16:20:37;4.10;;;2.10;;
56752;SDS011;42627;42.646;23.642;2022-08-19T16:22:40;6.32;;;2.25;;
56752;SDS011;42627;42.646;23.642;2022-08-19T16:24:41;3.38;;;2.03;;
56752;SDS011;42627;42.646;23.642;2022-08-19T16:26:42;4.05;;;2.03;;
56752;SDS011;42627;42.646;23.642;2022-08-19T16:28:44;6.90;;;2.60;;
56752;SDS011;42627;42.646;23.642;2022-08-19T16:30:45;4.68;;;2.40;;
56752;SDS011;42627;42.646;23.642;2022-08-19T16:32:46;5.32;;;2.80;;
56752;SDS011;42627;42.646;23.642;2022-08-19T16:34:47;3.78;;;2.10;;
56752;SDS011;42627;42.646;23.642;2022-08-19T16:36:48;4.65;;;2.45;;
56752;SDS011;42627;42.646;23.642;2022-08-19T16:38:50;3.47;;;1.95;;
56752;SDS011;42627;42.646;23.642;2022-08-19T16:40:51;4.55;;;2.42;;
56752;SDS011;42627;42.646;23.642;2022-08-19T16:42:53;3.45;;;2.40;;
56752;SDS011;42627;42.646;23.642;2022-08-19T16:44:55;7.13;;;2.40;;
56752;SDS011;42627;42.646;23.642;2022-08-19T16:46:56;4.07;;;1.92;;
56752;SDS011;42627;42.646;23.642;2022-08-19T16:48:57;5.30;;;2.55;;
56752;SDS011;42627;42.646;23.642;2022-08-19T16:50:59;4.35;;;2.40;;
56752;SDS011;42627;42.646;23.642;2022-08-19T16:53:00;4.05;;;2.60;;
56752;SDS011;42627;42.646;23.642;2022-08-19T16:55:04;4.70;;;2.15;;
56752;SDS011;42627;42.646;23.642;2022-08-19T16:57:05;4.18;;;2.65;;
56752;SDS011;42627;42.646;23.642;2022-08-19T16:59:06;5.72;;;2.72;;
56752;SDS011;42627;42.646;23.642;2022-08-19T17:01:07;3.97;;;2.35;;
56752;SDS011;42627;42.646;23.642;2022-08-19T17:03:09;5.88;;;2.65;;
56752;SDS011;42627;42.646;23.642;2022-08-19T17:05:10;5.05;;;2.55;;
56752;SDS011;42627;42.646;23.642;2022-08-19T17:07:11;3.65;;;2.25;;
56752;SDS011;42627;42.646;23.642;2022-08-19T17:09:12;4.93;;;2.85;;
56752;SDS011;42627;42.646;23.642;2022-08-19T17:11:15;5.30;;;2.90;;
56752;SDS011;42627;42.646;23.642;2022-08-19T17:13:16;5.03;;;2.83;;
56752;SDS011;42627;42.646;23.642;2022-08-19T17:15:22;4.70;;;2.50;;
56752;SDS011;42627;42.646;23.642;2022-08-19T17:17:39;4.80;;;2.75;;
56752;SDS011;42627;42.646;23.642;2022-08-19T17:19:45;6.43;;;3.20;;
56752;SDS011;42627;42.646;23.642;2022-08-19T17:21:49;5.53;;;2.50;;
56752;SDS011;42627;42.646;23.642;2022-08-19T17:23:51;4.28;;;2.50;;
56752;SDS011;42627;42.646;23.642;2022-08-19T17:25:52;5.93;;;2.80;;
56752;SDS011;42627;42.646;23.642;2022-08-19T17:27:55;5.38;;;2.92;;
56752;SDS011;42627;42.646;23.642;2022-08-19T17:30:01;4.35;;;2.35;;
56752;SDS011;42627;42.646;23.642;2022-08-19T17:32:04;6.07;;;2.42;;
56752;SDS011;42627;42.646;23.642;2022-08-19T17:34:06;7.22;;;3.08;;
56752;SDS011;42627;42.646;23.642;2022-08-19T17:36:08;5.15;;;2.55;;
56752;SDS011;42627;42.646;23.642;2022-08-19T17:38:13;5.65;;;2.97;;
56752;SDS011;42627;42.646;23.642;2022-08-19T17:40:16;4.97;;;3.20;;
56752;SDS011;42627;42.646;23.642;2022-08-19T17:42:18;5.67;;;3.20;;
56752;SDS011;42627;42.646;23.642;2022-08-19T17:46:51;6.65;;;3.13;;
56752;SDS011;42627;42.646;23.642;2022-08-19T17:48:58;6.18;;;3.47;;
56752;SDS011;42627;42.646;23.642;2022-08-19T17:50:59;5.70;;;3.22;;
56752;SDS011;42627;42.646;23.642;2022-08-19T17:53:00;4.90;;;3.13;;
56752;SDS011;42627;42.646;23.642;2022-08-19T17:55:05;10.45;;;4.13;;
56752;SDS011;42627;42.646;23.642;2022-08-19T17:57:06;6.78;;;3.65;;
56752;SDS011;42627;42.646;23.642;2022-08-19T17:59:08;6.90;;;3.60;;
56752;SDS011;42627;42.646;23.642;2022-08-19T18:01:10;6.05;;;3.90;;
56752;SDS011;42627;42.646;23.642;2022-08-19T18:03:20;7.00;;;3.42;;
56752;SDS011;42627;42.646;23.642;2022-08-19T18:05:25;8.93;;;3.72;;
56752;SDS011;42627;42.646;23.642;2022-08-19T18:07:28;7.43;;;3.72;;
56752;SDS011;42627;42.646;23.642;2022-08-19T18:09:32;7.28;;;3.80;;
56752;SDS011;42627;42.646;23.642;2022-08-19T18:11:33;4.32;;;2.88;;
56752;SDS011;42627;42.646;23.642;2022-08-19T18:16:07;5.63;;;2.97;;
56752;SDS011;42627;42.646;23.642;2022-08-19T18:18:39;6.95;;;3.53;;
56752;SDS011;42627;42.646;23.642;2022-08-19T18:20:40;7.88;;;3.97;;
56752;SDS011;42627;42.646;23.642;2022-08-19T18:22:42;5.97;;;3.63;;
56752;SDS011;42627;42.646;23.642;2022-08-19T18:24:43;8.75;;;3.85;;
56752;SDS011;42627;42.646;23.642;2022-08-19T18:26:44;8.10;;;3.78;;
56752;SDS011;42627;42.646;23.642;2022-08-19T18:28:45;7.57;;;3.70;;
56752;SDS011;42627;42.646;23.642;2022-08-19T18:30:47;5.00;;;3.45;;
56752;SDS011;42627;42.646;23.642;2022-08-19T18:32:57;5.60;;;3.55;;
56752;SDS011;42627;42.646;23.642;2022-08-19T18:35:02;5.78;;;3.65;;
56752;SDS011;42627;42.646;23.642;2022-08-19T18:37:03;8.52;;;3.45;;
56752;SDS011;42627;42.646;23.642;2022-08-19T18:39:05;8.20;;;4.10;;
56752;SDS011;42627;42.646;23.642;2022-08-19T18:41:24;7.68;;;3.88;;
56752;SDS011;42627;42.646;23.642;2022-08-19T18:43:50;5.75;;;3.10;;
56752;SDS011;42627;42.646;23.642;2022-08-19T18:48:33;5.97;;;3.22;;
56752;SDS011;42627;42.646;23.642;2022-08-19T18:50:54;5.95;;;2.75;;
56752;SDS011;42627;42.646;23.642;2022-08-19T18:52:55;8.13;;;3.13;;
56752;SDS011;42627;42.646;23.642;2022-08-19T18:54:56;6.28;;;3.22;;
56752;SDS011;42627;42.646;23.642;2022-08-19T18:56:58;5.65;;;3.20;;
56752;SDS011;42627;42.646;23.642;2022-08-19T18:58:59;4.97;;;3.00;;
56752;SDS011;42627;42.646;23.642;2022-08-19T19:01:44;4.97;;;3.05;;
56752;SDS011;42627;42.646;23.642;2022-08-19T19:03:30;5.18;;;3.08;;
56752;SDS011;42627;42.646;23.642;2022-08-19T19:05:32;5.38;;;3.13;;
56752;SDS011;42627;42.646;23.642;2022-08-19T19:07:34;5.10;;;3.17;;
56752;SDS011;42627;42.646;23.642;2022-08-19T19:09:35;5.28;;;3.13;;
56752;SDS011;42627;42.646;23.642;2022-08-19T19:11:37;4.45;;;2.83;;
56752;SDS011;42627;42.646;23.642;2022-08-19T19:13:50;5.75;;;3.28;;
56752;SDS011;42627;42.646;23.642;2022-08-19T19:18:46;6.00;;;3.35;;
56752;SDS011;42627;42.646;23.642;2022-08-19T19:20:50;6.53;;;3.75;;
56752;SDS011;42627;42.646;23.642;2022-08-19T19:22:51;5.50;;;3.38;;
56752;SDS011;42627;42.646;23.642;2022-08-19T19:24:52;6.57;;;3.58;;
56752;SDS011;42627;42.646;23.642;2022-08-19T19:26:54;5.25;;;3.30;;
56752;SDS011;42627;42.646;23.642;2022-08-19T19:28:55;6.03;;;3.50;;
56752;SDS011;42627;42.646;23.642;2022-08-19T19:31:06;6.10;;;3.58;;
56752;SDS011;42627;42.646;23.642;2022-08-19T19:33:07;7.97;;;3.97;;
56752;SDS011;42627;42.646;23.642;2022-08-19T19:35:08;8.02;;;3.40;;
56752;SDS011;42627;42.646;23.642;2022-08-19T19:37:09;7.47;;;3.55;;
56752;SDS011;42627;42.646;23.642;2022-08-19T19:39:10;6.25;;;4.13;;
56752;SDS011;42627;42.646;23.642;2022-08-19T19:41:12;6.70;;;3.58;;
56752;SDS011;42627;42.646;23.642;2022-08-19T19:43:13;5.20;;;3.17;;
56752;SDS011;42627;42.646;23.642;2022-08-19T19:45:16;6.50;;;3.65;;
56752;SDS011;42627;42.646;23.642;2022-08-19T19:49:55;6.45;;;4.03;;
56752;SDS011;42627;42.646;23.642;2022-08-19T19:52:14;7.03;;;3.72;;
56752;SDS011;42627;42.646;23.642;2022-08-19T19:54:15;5.88;;;3.58;;
56752;SDS011;42627;42.646;23.642;2022-08-19T19:56:18;5.20;;;3.38;;
56752;SDS011;42627;42.646;23.642;2022-08-19T19:58:21;6.45;;;3.42;;
56752;SDS011;42627;42.646;23.642;2022-08-19T20:00:23;7.05;;;3.35;;
56752;SDS011;42627;42.646;23.642;2022-08-19T20:02:26;6.55;;;3.25;;
56752;SDS011;42627;42.646;23.642;2022-08-19T20:04:27;6.00;;;3.40;;
56752;SDS011;42627;42.646;23.642;2022-08-19T20:44:12;6.13;;;3.42;;
56752;SDS011;42627;42.646;23.642;2022-08-19T20:46:13;5.57;;;3.20;;
56752;SDS011;42627;42.646;23.642;2022-08-19T20:48:14;6.30;;;3.47;;
56752;SDS011;42627;42.646;23.642;2022-08-19T20:50:15;6.20;;;3.33;;
56752;SDS011;42627;42.646;23.642;2022-08-19T20:55:00;5.60;;;3.35;;
56752;SDS011;42627;42.646;23.642;2022-08-19T20:57:06;4.90;;;3.10;;
56752;SDS011;42627;42.646;23.642;2022-08-19T20:59:07;6.15;;;3.30;;
56752;SDS011;42627;42.646;23.642;2022-08-19T21:01:09;6.50;;;3.20;;
56752;SDS011;42627;42.646;23.642;2022-08-19T21:03:20;6.82;;;3.67;;
56752;SDS011;42627;42.646;23.642;2022-08-19T21:05:22;5.93;;;3.17;;
56752;SDS011;42627;42.646;23.642;2022-08-19T21:07:23;6.28;;;3.50;;
56752;SDS011;42627;42.646;23.642;2022-08-19T21:09:24;6.50;;;3.50;;
56752;SDS011;42627;42.646;23.642;2022-08-19T21:11:30;5.00;;;2.95;;
56752;SDS011;42627;42.646;23.642;2022-08-19T21:13:31;5.70;;;3.35;;
56752;SDS011;42627;42.646;23.642;2022-08-19T21:15:32;5.88;;;2.90;;
56752;SDS011;42627;42.646;23.642;2022-08-19T21:17:34;5.72;;;3.00;;
56752;SDS011;42627;42.646;23.642;2022-08-19T21:19:35;5.25;;;3.22;;
56752;SDS011;42627;42.646;23.642;2022-08-19T21:26:31;5.78;;;3.17;;
56752;SDS011;42627;42.646;23.642;2022-08-19T21:28:32;5.30;;;2.90;;
56752;SDS011;42627;42.646;23.642;2022-08-19T21:30:33;5.32;;;3.45;;
56752;SDS011;42627;42.646;23.642;2022-08-19T21:32:34;5.38;;;3.10;;
56752;SDS011;42627;42.646;23.642;2022-08-19T21:34:36;5.50;;;3.10;;
56752;SDS011;42627;42.646;23.642;2022-08-19T21:36:37;6.13;;;3.63;;
56752;SDS011;42627;42.646;23.642;2022-08-19T21:38:38;5.85;;;3.15;;
56752;SDS011;42627;42.646;23.642;2022-08-19T22:05:09;5.57;;;3.28;;
56752;SDS011;42627;42.646;23.642;2022-08-19T22:07:10;7.40;;;3.88;;
56752;SDS011;42627;42.646;23.642;2022-08-19T22:09:13;5.95;;;3.72;;
56752;SDS011;42627;42.646;23.642;2022-08-19T22:11:13;8.05;;;3.50;;
56752;SDS011;42627;42.646;23.642;2022-08-19T22:13:14;5.88;;;3.22;;
56752;SDS011;42627;42.646;23.642;2022-08-19T22:15:17;4.88;;;3.17;;
56752;SDS011;42627;42.646;23.642;2022-08-19T22:17:22;6.40;;;3.17;;
56752;SDS011;42627;42.646;23.642;2022-08-19T22:19:27;6.30;;;3.28;;
56752;SDS011;42627;42.646;23.642;2022-08-19T22:21:31;7.20;;;3.33;;